Britannia — VY5348 — position and weather

sailwx.info

Track history (hours):
 
Tides and Currents Weather Stations Pressure Air Temp Water Temp Dewpoint Dewpoint Depression Visibility Wind Speed Wind Dir Waves Ship Positions

Britannia

Last reported at 2016-Jun-28 07:34 UTC. Time now 2016-Jun-28 07:56 UTC.
Position N 49°18' W 123°04'.

Length 38 m; draft 5.4 m.

Type: Passenger vessel. MMSI: 316021351.

Date/timePositionNaut miles runAvg speedWind from/ knotsBaromVisibWave heightAir tempDewpointWater temp
2016-Jun-28 07:34N 49°18' W 123°04'4 3.8
2016-Jun-28 06:33N 49°19' W 123°09'15 6.8
2016-Jun-28 04:25N 49°24' W 123°30'7 7.8
2016-Jun-28 03:33N 49°25' W 123°20'9 9.5
2016-Jun-28 02:33N 49°19' W 123°09'2 1.5
2016-Jun-28 01:30N 49°18' W 123°08'0 0.0
2016-Jun-28 00:33N 49°18' W 123°08'0 0.0
2016-Jun-27 23:33N 49°18' W 123°08'0 0.0
2016-Jun-27 22:33N 49°18' W 123°08'0 0.0
2016-Jun-27 21:33N 49°18' W 123°08'0 0.0
2016-Jun-27 20:33N 49°18' W 123°08'0 0.0
2016-Jun-27 19:33N 49°18' W 123°08'0 0.0
2016-Jun-27 18:33N 49°18' W 123°08'0 0.0
2016-Jun-27 17:33N 49°18' W 123°08'0 0.0
2016-Jun-27 16:33N 49°18' W 123°08'0 0.0
2016-Jun-27 15:33N 49°18' W 123°08'0 0.0
2016-Jun-27 14:33N 49°18' W 123°08'0 0.0
2016-Jun-27 13:33N 49°18' W 123°08'0 0.0
2016-Jun-27 12:33N 49°18' W 123°08'0 0.0
2016-Jun-27 11:33N 49°18' W 123°08'0 0.0
2016-Jun-27 10:33N 49°18' W 123°08'0 0.0
2016-Jun-27 09:33N 49°18' W 123°08'0 0.0
2016-Jun-27 08:33N 49°18' W 123°08'0 0.0
2016-Jun-27 07:33N 49°18' W 123°08'0 0.0
2016-Jun-27 06:33N 49°18' W 123°08'0 0.0
2016-Jun-27 05:33N 49°18' W 123°08'0 0.0
2016-Jun-27 04:33N 49°18' W 123°08'0 0.0
2016-Jun-27 03:33N 49°18' W 123°08'0 0.0
2016-Jun-27 02:33N 49°18' W 123°08'0 0.0
2016-Jun-27 01:33N 49°18' W 123°08'0 0.0
2016-Jun-27 00:33N 49°18' W 123°08'0 0.0
2016-Jun-26 23:33N 49°18' W 123°08'0 0.0
2016-Jun-26 22:33N 49°18' W 123°08'0 0.0
2016-Jun-26 21:33N 49°18' W 123°08'0 0.0
2016-Jun-26 20:33N 49°18' W 123°08'0 0.0
2016-Jun-26 19:33N 49°18' W 123°08'0 0.0
2016-Jun-26 18:33N 49°18' W 123°08'0 0.0
2016-Jun-26 17:33N 49°18' W 123°08'0 0.0
2016-Jun-26 16:33N 49°18' W 123°08'0 0.0
2016-Jun-26 15:33N 49°18' W 123°08'0 0.0
2016-Jun-26 14:33N 49°18' W 123°08'0 0.0
2016-Jun-26 13:33N 49°18' W 123°08'0 0.0
2016-Jun-26 12:33N 49°18' W 123°08'0 0.0
2016-Jun-26 11:33N 49°18' W 123°08'0 0.0
2016-Jun-26 10:33N 49°18' W 123°08'0 0.0
2016-Jun-26 09:33N 49°18' W 123°08'0 0.0
2016-Jun-26 08:33N 49°18' W 123°08'0 0.0
2016-Jun-26 07:33N 49°18' W 123°08'1 0.9
2016-Jun-26 06:34N 49°18' W 123°07'2 2.1
2016-Jun-26 05:34N 49°19' W 123°09'2 1.8
2016-Jun-26 04:31N 49°18' W 123°08'0 0.0
2016-Jun-26 03:31N 49°18' W 123°08'0 0.0
2016-Jun-26 02:31N 49°18' W 123°08'0 0.0
2016-Jun-26 01:31N 49°18' W 123°08'0 0.0
2016-Jun-26 00:31N 49°18' W 123°08'0 0.0
2016-Jun-25 23:31N 49°18' W 123°08'0 0.0
2016-Jun-25 22:31N 49°18' W 123°08'0 0.0
2016-Jun-25 21:31N 49°18' W 123°08'0 0.0
2016-Jun-25 20:31N 49°18' W 123°08'0 0.0
2016-Jun-25 19:31N 49°18' W 123°08'0 0.0
2016-Jun-25 18:31N 49°18' W 123°08'0 0.0
2016-Jun-25 17:31N 49°18' W 123°08'0 0.0
2016-Jun-25 16:31N 49°18' W 123°08'0 0.0
2016-Jun-25 15:31N 49°18' W 123°08'0 0.0
2016-Jun-25 14:31N 49°18' W 123°08'0 0.0
2016-Jun-25 13:31N 49°18' W 123°08'0 0.0
2016-Jun-25 12:31N 49°18' W 123°08'0 0.0
2016-Jun-25 11:31N 49°18' W 123°08'0 0.0
2016-Jun-25 10:31N 49°18' W 123°08'0 0.0
2016-Jun-25 09:31N 49°18' W 123°08'0 0.0
2016-Jun-25 08:31N 49°18' W 123°08'0 0.0
2016-Jun-25 07:31N 49°18' W 123°08'0 0.0
2016-Jun-25 06:31N 49°18' W 123°08'0 0.0
2016-Jun-25 05:31N 49°18' W 123°08'0 0.0
2016-Jun-25 04:31N 49°18' W 123°08'0 0.0
2016-Jun-25 03:31N 49°18' W 123°08'0 0.0
2016-Jun-25 02:31N 49°18' W 123°08'0 0.0
2016-Jun-25 01:31N 49°18' W 123°08'0 0.0
2016-Jun-25 00:31N 49°18' W 123°08'0 0.0
2016-Jun-24 23:31N 49°18' W 123°08'0 0.0
2016-Jun-24 22:31N 49°18' W 123°08'0 0.0
2016-Jun-24 21:31N 49°18' W 123°08'0 0.0
2016-Jun-24 20:31N 49°18' W 123°08'0 0.0
2016-Jun-24 19:31N 49°18' W 123°08'0 0.0
2016-Jun-24 18:31N 49°18' W 123°08'0 0.4
2016-Jun-24 17:33N 49°18' W 123°08'0 0.3
2016-Jun-24 16:31N 49°18' W 123°08'0 0.0
2016-Jun-24 15:31N 49°18' W 123°08'0 0.0
2016-Jun-24 14:31N 49°18' W 123°08'0 0.0
2016-Jun-24 13:31N 49°18' W 123°08'0 0.0
2016-Jun-24 12:31N 49°18' W 123°08'0 0.0
2016-Jun-24 11:31N 49°18' W 123°08'0 0.0
2016-Jun-24 10:31N 49°18' W 123°08'0 0.0
2016-Jun-24 09:31N 49°18' W 123°08'0 0.0
2016-Jun-24 08:31N 49°18' W 123°08'0 0.0
2016-Jun-24 07:31N 49°18' W 123°08'0 0.0
2016-Jun-24 04:31N 49°18' W 123°08'0 0.0
2016-Jun-24 03:31N 49°18' W 123°08'0 0.0
2016-Jun-24 02:31N 49°18' W 123°08'0 0.0
2016-Jun-24 01:31N 49°18' W 123°08'0 0.0
2016-Jun-24 00:31N 49°18' W 123°08'0 0.0
2016-Jun-23 23:31N 49°18' W 123°08'0 0.0
2016-Jun-23 22:31N 49°18' W 123°08'0 0.0
2016-Jun-23 21:31N 49°18' W 123°08'0 0.0
2016-Jun-23 20:28N 49°18' W 123°08'0 0.0
2016-Jun-23 19:31N 49°18' W 123°08'0 0.0
2016-Jun-23 18:31N 49°18' W 123°08'0 0.0
2016-Jun-23 17:31N 49°18' W 123°08'0 0.0
2016-Jun-23 16:31N 49°18' W 123°08'0 0.0
2016-Jun-23 15:31N 49°18' W 123°08'0 0.0
2016-Jun-23 14:31N 49°18' W 123°08'0 0.0
2016-Jun-23 13:31N 49°18' W 123°08'0 0.0
2016-Jun-23 12:31N 49°18' W 123°08'0 0.0
2016-Jun-23 11:31N 49°18' W 123°08'0 0.0
2016-Jun-23 10:31N 49°18' W 123°08'0 0.0
2016-Jun-23 09:31N 49°18' W 123°08'0 0.0
2016-Jun-23 08:31N 49°18' W 123°08'0 0.0
2016-Jun-23 07:34N 49°18' W 123°08'0 0.0
2016-Jun-23 05:31N 49°18' W 123°08'0 0.0
2016-Jun-23 04:34N 49°18' W 123°08'0 0.0
2016-Jun-23 03:34N 49°18' W 123°08'0 0.0
2016-Jun-23 02:34N 49°18' W 123°08'0 0.0
2016-Jun-23 01:31N 49°18' W 123°08'0 0.0
2016-Jun-23 00:31N 49°18' W 123°08'0 0.0
2016-Jun-22 23:34N 49°18' W 123°08'0 0.0
2016-Jun-22 22:34N 49°18' W 123°08'0 0.0
2016-Jun-22 21:34N 49°18' W 123°08'0 0.0
2016-Jun-22 20:34N 49°18' W 123°08'0 0.0
2016-Jun-22 19:34N 49°18' W 123°08'0 0.0
2016-Jun-22 18:34N 49°18' W 123°08'0 0.0
2016-Jun-22 17:34N 49°18' W 123°08'0 0.0
2016-Jun-22 16:34N 49°18' W 123°08'0 0.0
2016-Jun-22 15:34N 49°18' W 123°08'0 0.0
2016-Jun-22 14:34N 49°18' W 123°08'0 0.0
2016-Jun-22 13:34N 49°18' W 123°08'0 0.0
2016-Jun-22 12:34N 49°18' W 123°08'0 0.0
2016-Jun-22 11:34N 49°18' W 123°08'0 0.0
2016-Jun-22 10:34N 49°18' W 123°08'0 0.0
2016-Jun-22 09:33N 49°18' W 123°08'0 0.0
2016-Jun-22 08:33N 49°18' W 123°08'0 0.0
2016-Jun-22 07:33N 49°18' W 123°08'0 0.0
2016-Jun-22 06:33N 49°18' W 123°08'0 0.0
2016-Jun-22 05:33N 49°18' W 123°08'0 0.0
2016-Jun-22 04:33N 49°18' W 123°08'0 0.0
2016-Jun-22 03:33N 49°18' W 123°08'0 0.0
2016-Jun-22 02:33N 49°18' W 123°08'0 0.0
2016-Jun-22 01:34N 49°18' W 123°08'0 0.0
2016-Jun-22 00:33N 49°18' W 123°08'0 0.0
2016-Jun-21 23:33N 49°18' W 123°08'0 0.0
2016-Jun-21 22:33N 49°18' W 123°08'0 0.0
2016-Jun-21 21:33N 49°18' W 123°08'0 0.0
2016-Jun-21 20:33N 49°18' W 123°08'0 0.0
2016-Jun-21 19:33N 49°18' W 123°08'0 0.0
2016-Jun-21 18:33N 49°18' W 123°08'0 0.0
2016-Jun-21 17:33N 49°18' W 123°08'0 0.0
2016-Jun-21 16:33N 49°18' W 123°08'0 0.0
2016-Jun-21 15:33N 49°18' W 123°08'0 0.0
2016-Jun-21 14:33N 49°18' W 123°08'0 0.0
2016-Jun-21 13:30N 49°18' W 123°08'0 0.0
2016-Jun-21 12:33N 49°18' W 123°08'0 0.0
2016-Jun-21 11:33N 49°18' W 123°08'0 0.0
2016-Jun-21 10:33N 49°18' W 123°08'0 0.0
2016-Jun-21 09:33N 49°18' W 123°08'0 0.0
2016-Jun-21 08:33N 49°18' W 123°08'0 0.0
2016-Jun-21 07:33N 49°18' W 123°08'0 0.0
2016-Jun-21 06:33N 49°18' W 123°08'0 0.0
2016-Jun-21 04:33N 49°18' W 123°08'0 0.0
2016-Jun-21 03:33N 49°18' W 123°08'0 0.0
2016-Jun-21 02:33N 49°18' W 123°08'0 0.0
2016-Jun-21 01:33N 49°18' W 123°08'0 0.0
2016-Jun-21 00:33N 49°18' W 123°08'0 0.0
2016-Jun-20 23:33N 49°18' W 123°08'0 0.0
2016-Jun-20 22:33N 49°18' W 123°08'0 0.0
2016-Jun-20 21:33N 49°18' W 123°08'0 0.0
2016-Jun-20 20:33N 49°18' W 123°08'0 0.0
2016-Jun-20 19:33N 49°18' W 123°08'0 0.0
2016-Jun-20 18:33N 49°18' W 123°08'0 0.0
2016-Jun-20 17:33N 49°18' W 123°08'0 0.0
2016-Jun-20 16:33N 49°18' W 123°08'0 0.0
2016-Jun-20 15:33N 49°18' W 123°08'0 0.0
2016-Jun-20 14:33N 49°18' W 123°08'0 0.0
2016-Jun-20 13:33N 49°18' W 123°08'0 0.0
2016-Jun-20 12:33N 49°18' W 123°08'0 0.0
2016-Jun-20 11:33N 49°18' W 123°08'0 0.0
2016-Jun-20 10:33N 49°18' W 123°08'0 0.0
2016-Jun-20 09:33N 49°18' W 123°08'0 0.0
2016-Jun-20 08:33N 49°18' W 123°08'0 0.0
2016-Jun-20 07:33N 49°18' W 123°08'0 0.0
2016-Jun-20 06:33N 49°18' W 123°08'0 0.0
2016-Jun-20 05:33N 49°18' W 123°08'0 0.0
2016-Jun-20 04:33N 49°18' W 123°08'0 0.0
2016-Jun-20 03:33N 49°18' W 123°08'0 0.0
2016-Jun-20 02:33N 49°18' W 123°08'0 0.0
2016-Jun-20 01:33N 49°18' W 123°08'0 0.0
2016-Jun-20 00:33N 49°18' W 123°08'0 0.0
2016-Jun-19 23:33N 49°18' W 123°08'0 0.0
2016-Jun-19 22:33N 49°18' W 123°08'0 0.0
2016-Jun-19 21:33N 49°18' W 123°08'0 0.0
2016-Jun-19 20:33N 49°18' W 123°08'0 0.0
2016-Jun-19 19:33N 49°18' W 123°08'0 0.0
2016-Jun-19 18:33N 49°18' W 123°08'0 0.0
2016-Jun-19 17:33N 49°18' W 123°08'0 0.0
2016-Jun-19 16:33N 49°18' W 123°08'0 0.0
2016-Jun-19 15:33N 49°18' W 123°08'0 0.0
2016-Jun-19 14:33N 49°18' W 123°08'0 0.0
2016-Jun-19 13:33N 49°18' W 123°08'0 0.0
2016-Jun-19 12:33N 49°18' W 123°08'0 0.0
2016-Jun-19 11:33N 49°18' W 123°08'0 0.0
2016-Jun-19 10:33N 49°18' W 123°08'0 0.0
2016-Jun-19 09:33N 49°18' W 123°08'0 0.0
2016-Jun-19 08:33N 49°18' W 123°08'0 0.0
2016-Jun-19 07:33N 49°18' W 123°08'2 2.0
2016-Jun-19 06:33N 49°18' W 123°11'2 2.4
2016-Jun-19 05:33N 49°19' W 123°14'4 3.9
2016-Jun-19 04:31N 49°18' W 123°08'0 0.0
2016-Jun-19 03:31N 49°18' W 123°08'0 0.0
2016-Jun-19 02:31N 49°18' W 123°08'0 0.0
2016-Jun-19 01:31N 49°18' W 123°08'0 0.0
2016-Jun-19 00:31N 49°18' W 123°08'0 0.0
2016-Jun-18 23:31N 49°18' W 123°08'0 0.0
2016-Jun-18 22:31N 49°18' W 123°08'0 0.0
2016-Jun-18 21:31N 49°18' W 123°08'0 0.0
2016-Jun-18 20:31N 49°18' W 123°08'0 0.0
2016-Jun-18 19:31N 49°18' W 123°08'0 0.0
2016-Jun-18 18:31N 49°18' W 123°08'0 0.0
2016-Jun-18 17:31N 49°18' W 123°08'0 0.0
2016-Jun-18 16:31N 49°18' W 123°08'0 0.0
2016-Jun-18 15:31N 49°18' W 123°08'0 0.0
2016-Jun-18 14:31N 49°18' W 123°08'0 0.0
2016-Jun-18 13:31N 49°18' W 123°08'0 0.0
2016-Jun-18 12:31N 49°18' W 123°08'0 0.0
2016-Jun-18 11:31N 49°18' W 123°08'0 0.0
2016-Jun-18 10:31N 49°18' W 123°08'0 0.0
2016-Jun-18 09:31N 49°18' W 123°08'0 0.0
2016-Jun-18 08:31N 49°18' W 123°08'  
Track history (hours):
 
Tides and Currents Weather Stations Pressure Air Temp Water Temp Dewpoint Dewpoint Depression Visibility Wind Speed Wind Dir Waves Ship Positions

Britannia

Last reported at 2016-Jun-28 07:34 UTC. Time now 2016-Jun-28 07:56 UTC.
Position N 49°18' W 123°04'.

Length 38 m; draft 5.4 m.

Type: Passenger vessel. MMSI: 316021351.

Date/timePositionNaut miles runAvg speedWind from/ knotsBaromVisibWave heightAir tempDewpointWater temp
2016-Jun-28 07:34N 49°18' W 123°04'4 3.8
2016-Jun-28 06:33N 49°19' W 123°09'15 6.8
2016-Jun-28 04:25N 49°24' W 123°30'7 7.8
2016-Jun-28 03:33N 49°25' W 123°20'9 9.5
2016-Jun-28 02:33N 49°19' W 123°09'2 1.5
2016-Jun-28 01:30N 49°18' W 123°08'0 0.0
2016-Jun-28 00:33N 49°18' W 123°08'0 0.0
2016-Jun-27 23:33N 49°18' W 123°08'0 0.0
2016-Jun-27 22:33N 49°18' W 123°08'0 0.0
2016-Jun-27 21:33N 49°18' W 123°08'0 0.0
2016-Jun-27 20:33N 49°18' W 123°08'0 0.0
2016-Jun-27 19:33N 49°18' W 123°08'0 0.0
2016-Jun-27 18:33N 49°18' W 123°08'0 0.0
2016-Jun-27 17:33N 49°18' W 123°08'0 0.0
2016-Jun-27 16:33N 49°18' W 123°08'0 0.0
2016-Jun-27 15:33N 49°18' W 123°08'0 0.0
2016-Jun-27 14:33N 49°18' W 123°08'0 0.0
2016-Jun-27 13:33N 49°18' W 123°08'0 0.0
2016-Jun-27 12:33N 49°18' W 123°08'0 0.0
2016-Jun-27 11:33N 49°18' W 123°08'0 0.0
2016-Jun-27 10:33N 49°18' W 123°08'0 0.0
2016-Jun-27 09:33N 49°18' W 123°08'0 0.0
2016-Jun-27 08:33N 49°18' W 123°08'0 0.0
2016-Jun-27 07:33N 49°18' W 123°08'0 0.0
2016-Jun-27 06:33N 49°18' W 123°08'0 0.0
2016-Jun-27 05:33N 49°18' W 123°08'0 0.0
2016-Jun-27 04:33N 49°18' W 123°08'0 0.0
2016-Jun-27 03:33N 49°18' W 123°08'0 0.0
2016-Jun-27 02:33N 49°18' W 123°08'0 0.0
2016-Jun-27 01:33N 49°18' W 123°08'0 0.0
2016-Jun-27 00:33N 49°18' W 123°08'0 0.0
2016-Jun-26 23:33N 49°18' W 123°08'0 0.0
2016-Jun-26 22:33N 49°18' W 123°08'0 0.0
2016-Jun-26 21:33N 49°18' W 123°08'0 0.0
2016-Jun-26 20:33N 49°18' W 123°08'0 0.0
2016-Jun-26 19:33N 49°18' W 123°08'0 0.0
2016-Jun-26 18:33N 49°18' W 123°08'0 0.0
2016-Jun-26 17:33N 49°18' W 123°08'0 0.0
2016-Jun-26 16:33N 49°18' W 123°08'0 0.0
2016-Jun-26 15:33N 49°18' W 123°08'0 0.0
2016-Jun-26 14:33N 49°18' W 123°08'0 0.0
2016-Jun-26 13:33N 49°18' W 123°08'0 0.0
2016-Jun-26 12:33N 49°18' W 123°08'0 0.0
2016-Jun-26 11:33N 49°18' W 123°08'0 0.0
2016-Jun-26 10:33N 49°18' W 123°08'0 0.0
2016-Jun-26 09:33N 49°18' W 123°08'0 0.0
2016-Jun-26 08:33N 49°18' W 123°08'0 0.0
2016-Jun-26 07:33N 49°18' W 123°08'1 0.9
2016-Jun-26 06:34N 49°18' W 123°07'2 2.1
2016-Jun-26 05:34N 49°19' W 123°09'2 1.8
2016-Jun-26 04:31N 49°18' W 123°08'0 0.0
2016-Jun-26 03:31N 49°18' W 123°08'0 0.0
2016-Jun-26 02:31N 49°18' W 123°08'0 0.0
2016-Jun-26 01:31N 49°18' W 123°08'0 0.0
2016-Jun-26 00:31N 49°18' W 123°08'0 0.0
2016-Jun-25 23:31N 49°18' W 123°08'0 0.0
2016-Jun-25 22:31N 49°18' W 123°08'0 0.0
2016-Jun-25 21:31N 49°18' W 123°08'0 0.0
2016-Jun-25 20:31N 49°18' W 123°08'0 0.0
2016-Jun-25 19:31N 49°18' W 123°08'0 0.0
2016-Jun-25 18:31N 49°18' W 123°08'0 0.0
2016-Jun-25 17:31N 49°18' W 123°08'0 0.0
2016-Jun-25 16:31N 49°18' W 123°08'0 0.0
2016-Jun-25 15:31N 49°18' W 123°08'0 0.0
2016-Jun-25 14:31N 49°18' W 123°08'0 0.0
2016-Jun-25 13:31N 49°18' W 123°08'0 0.0
2016-Jun-25 12:31N 49°18' W 123°08'0 0.0
2016-Jun-25 11:31N 49°18' W 123°08'0 0.0
2016-Jun-25 10:31N 49°18' W 123°08'0 0.0
2016-Jun-25 09:31N 49°18' W 123°08'0 0.0
2016-Jun-25 08:31N 49°18' W 123°08'0 0.0
2016-Jun-25 07:31N 49°18' W 123°08'0 0.0
2016-Jun-25 06:31N 49°18' W 123°08'0 0.0
2016-Jun-25 05:31N 49°18' W 123°08'0 0.0
2016-Jun-25 04:31N 49°18' W 123°08'0 0.0
2016-Jun-25 03:31N 49°18' W 123°08'0 0.0
2016-Jun-25 02:31N 49°18' W 123°08'0 0.0
2016-Jun-25 01:31N 49°18' W 123°08'0 0.0
2016-Jun-25 00:31N 49°18' W 123°08'0 0.0
2016-Jun-24 23:31N 49°18' W 123°08'0 0.0
2016-Jun-24 22:31N 49°18' W 123°08'0 0.0
2016-Jun-24 21:31N 49°18' W 123°08'0 0.0
2016-Jun-24 20:31N 49°18' W 123°08'0 0.0
2016-Jun-24 19:31N 49°18' W 123°08'0 0.0
2016-Jun-24 18:31N 49°18' W 123°08'0 0.4
2016-Jun-24 17:33N 49°18' W 123°08'0 0.3
2016-Jun-24 16:31N 49°18' W 123°08'0 0.0
2016-Jun-24 15:31N 49°18' W 123°08'0 0.0
2016-Jun-24 14:31N 49°18' W 123°08'0 0.0
2016-Jun-24 13:31N 49°18' W 123°08'0 0.0
2016-Jun-24 12:31N 49°18' W 123°08'0 0.0
2016-Jun-24 11:31N 49°18' W 123°08'0 0.0
2016-Jun-24 10:31N 49°18' W 123°08'0 0.0
2016-Jun-24 09:31N 49°18' W 123°08'0 0.0
2016-Jun-24 08:31N 49°18' W 123°08'0 0.0
2016-Jun-24 07:31N 49°18' W 123°08'0 0.0
2016-Jun-24 04:31N 49°18' W 123°08'0 0.0
2016-Jun-24 03:31N 49°18' W 123°08'0 0.0
2016-Jun-24 02:31N 49°18' W 123°08'0 0.0
2016-Jun-24 01:31N 49°18' W 123°08'0 0.0
2016-Jun-24 00:31N 49°18' W 123°08'0 0.0
2016-Jun-23 23:31N 49°18' W 123°08'0 0.0
2016-Jun-23 22:31N 49°18' W 123°08'0 0.0
2016-Jun-23 21:31N 49°18' W 123°08'0 0.0
2016-Jun-23 20:28N 49°18' W 123°08'0 0.0
2016-Jun-23 19:31N 49°18' W 123°08'0 0.0
2016-Jun-23 18:31N 49°18' W 123°08'0 0.0
2016-Jun-23 17:31N 49°18' W 123°08'0 0.0
2016-Jun-23 16:31N 49°18' W 123°08'0 0.0
2016-Jun-23 15:31N 49°18' W 123°08'0 0.0
2016-Jun-23 14:31N 49°18' W 123°08'0 0.0
2016-Jun-23 13:31N 49°18' W 123°08'0 0.0
2016-Jun-23 12:31N 49°18' W 123°08'0 0.0
2016-Jun-23 11:31N 49°18' W 123°08'0 0.0
2016-Jun-23 10:31N 49°18' W 123°08'0 0.0
2016-Jun-23 09:31N 49°18' W 123°08'0 0.0
2016-Jun-23 08:31N 49°18' W 123°08'0 0.0
2016-Jun-23 07:34N 49°18' W 123°08'0 0.0
2016-Jun-23 05:31N 49°18' W 123°08'0 0.0
2016-Jun-23 04:34N 49°18' W 123°08'0 0.0
2016-Jun-23 03:34N 49°18' W 123°08'0 0.0
2016-Jun-23 02:34N 49°18' W 123°08'0 0.0
2016-Jun-23 01:31N 49°18' W 123°08'0 0.0
2016-Jun-23 00:31N 49°18' W 123°08'0 0.0
2016-Jun-22 23:34N 49°18' W 123°08'0 0.0
2016-Jun-22 22:34N 49°18' W 123°08'0 0.0
2016-Jun-22 21:34N 49°18' W 123°08'0 0.0
2016-Jun-22 20:34N 49°18' W 123°08'0 0.0
2016-Jun-22 19:34N 49°18' W 123°08'0 0.0
2016-Jun-22 18:34N 49°18' W 123°08'0 0.0
2016-Jun-22 17:34N 49°18' W 123°08'0 0.0
2016-Jun-22 16:34N 49°18' W 123°08'0 0.0
2016-Jun-22 15:34N 49°18' W 123°08'0 0.0
2016-Jun-22 14:34N 49°18' W 123°08'0 0.0
2016-Jun-22 13:34N 49°18' W 123°08'0 0.0
2016-Jun-22 12:34N 49°18' W 123°08'0 0.0
2016-Jun-22 11:34N 49°18' W 123°08'0 0.0
2016-Jun-22 10:34N 49°18' W 123°08'0 0.0
2016-Jun-22 09:33N 49°18' W 123°08'0 0.0
2016-Jun-22 08:33N 49°18' W 123°08'0 0.0
2016-Jun-22 07:33N 49°18' W 123°08'0 0.0
2016-Jun-22 06:33N 49°18' W 123°08'0 0.0
2016-Jun-22 05:33N 49°18' W 123°08'0 0.0
2016-Jun-22 04:33N 49°18' W 123°08'0 0.0
2016-Jun-22 03:33N 49°18' W 123°08'0 0.0
2016-Jun-22 02:33N 49°18' W 123°08'0 0.0
2016-Jun-22 01:34N 49°18' W 123°08'0 0.0
2016-Jun-22 00:33N 49°18' W 123°08'0 0.0
2016-Jun-21 23:33N 49°18' W 123°08'0 0.0
2016-Jun-21 22:33N 49°18' W 123°08'0 0.0
2016-Jun-21 21:33N 49°18' W 123°08'0 0.0
2016-Jun-21 20:33N 49°18' W 123°08'0 0.0
2016-Jun-21 19:33N 49°18' W 123°08'0 0.0
2016-Jun-21 18:33N 49°18' W 123°08'0 0.0
2016-Jun-21 17:33N 49°18' W 123°08'0 0.0
2016-Jun-21 16:33N 49°18' W 123°08'0 0.0
2016-Jun-21 15:33N 49°18' W 123°08'0 0.0
2016-Jun-21 14:33N 49°18' W 123°08'0 0.0
2016-Jun-21 13:30N 49°18' W 123°08'0 0.0
2016-Jun-21 12:33N 49°18' W 123°08'0 0.0
2016-Jun-21 11:33N 49°18' W 123°08'0 0.0
2016-Jun-21 10:33N 49°18' W 123°08'0 0.0
2016-Jun-21 09:33N 49°18' W 123°08'0 0.0
2016-Jun-21 08:33N 49°18' W 123°08'0 0.0
2016-Jun-21 07:33N 49°18' W 123°08'0 0.0
2016-Jun-21 06:33N 49°18' W 123°08'0 0.0
2016-Jun-21 04:33N 49°18' W 123°08'0 0.0
2016-Jun-21 03:33N 49°18' W 123°08'0 0.0
2016-Jun-21 02:33N 49°18' W 123°08'0 0.0
2016-Jun-21 01:33N 49°18' W 123°08'0 0.0
2016-Jun-21 00:33N 49°18' W 123°08'0 0.0
2016-Jun-20 23:33N 49°18' W 123°08'0 0.0
2016-Jun-20 22:33N 49°18' W 123°08'0 0.0
2016-Jun-20 21:33N 49°18' W 123°08'0 0.0
2016-Jun-20 20:33N 49°18' W 123°08'0 0.0
2016-Jun-20 19:33N 49°18' W 123°08'0 0.0
2016-Jun-20 18:33N 49°18' W 123°08'0 0.0
2016-Jun-20 17:33N 49°18' W 123°08'0 0.0
2016-Jun-20 16:33N 49°18' W 123°08'0 0.0
2016-Jun-20 15:33N 49°18' W 123°08'0 0.0
2016-Jun-20 14:33N 49°18' W 123°08'0 0.0
2016-Jun-20 13:33N 49°18' W 123°08'0 0.0
2016-Jun-20 12:33N 49°18' W 123°08'0 0.0
2016-Jun-20 11:33N 49°18' W 123°08'0 0.0
2016-Jun-20 10:33N 49°18' W 123°08'0 0.0
2016-Jun-20 09:33N 49°18' W 123°08'0 0.0
2016-Jun-20 08:33N 49°18' W 123°08'0 0.0
2016-Jun-20 07:33N 49°18' W 123°08'0 0.0
2016-Jun-20 06:33N 49°18' W 123°08'0 0.0
2016-Jun-20 05:33N 49°18' W 123°08'0 0.0
2016-Jun-20 04:33N 49°18' W 123°08'0 0.0
2016-Jun-20 03:33N 49°18' W 123°08'0 0.0
2016-Jun-20 02:33N 49°18' W 123°08'0 0.0
2016-Jun-20 01:33N 49°18' W 123°08'0 0.0
2016-Jun-20 00:33N 49°18' W 123°08'0 0.0
2016-Jun-19 23:33N 49°18' W 123°08'0 0.0
2016-Jun-19 22:33N 49°18' W 123°08'0 0.0
2016-Jun-19 21:33N 49°18' W 123°08'0 0.0
2016-Jun-19 20:33N 49°18' W 123°08'0 0.0
2016-Jun-19 19:33N 49°18' W 123°08'0 0.0
2016-Jun-19 18:33N 49°18' W 123°08'0 0.0
2016-Jun-19 17:33N 49°18' W 123°08'0 0.0
2016-Jun-19 16:33N 49°18' W 123°08'0 0.0
2016-Jun-19 15:33N 49°18' W 123°08'0 0.0
2016-Jun-19 14:33N 49°18' W 123°08'0 0.0
2016-Jun-19 13:33N 49°18' W 123°08'0 0.0
2016-Jun-19 12:33N 49°18' W 123°08'0 0.0
2016-Jun-19 11:33N 49°18' W 123°08'0 0.0
2016-Jun-19 10:33N 49°18' W 123°08'0 0.0
2016-Jun-19 09:33N 49°18' W 123°08'0 0.0
2016-Jun-19 08:33N 49°18' W 123°08'0 0.0
2016-Jun-19 07:33N 49°18' W 123°08'2 2.0
2016-Jun-19 06:33N 49°18' W 123°11'2 2.4
2016-Jun-19 05:33N 49°19' W 123°14'4 3.9
2016-Jun-19 04:31N 49°18' W 123°08'0 0.0
2016-Jun-19 03:31N 49°18' W 123°08'0 0.0
2016-Jun-19 02:31N 49°18' W 123°08'0 0.0
2016-Jun-19 01:31N 49°18' W 123°08'0 0.0
2016-Jun-19 00:31N 49°18' W 123°08'0 0.0
2016-Jun-18 23:31N 49°18' W 123°08'0 0.0
2016-Jun-18 22:31N 49°18' W 123°08'0 0.0
2016-Jun-18 21:31N 49°18' W 123°08'0 0.0
2016-Jun-18 20:31N 49°18' W 123°08'0 0.0
2016-Jun-18 19:31N 49°18' W 123°08'0 0.0
2016-Jun-18 18:31N 49°18' W 123°08'0 0.0
2016-Jun-18 17:31N 49°18' W 123°08'0 0.0
2016-Jun-18 16:31N 49°18' W 123°08'0 0.0
2016-Jun-18 15:31N 49°18' W 123°08'0 0.0
2016-Jun-18 14:31N 49°18' W 123°08'0 0.0
2016-Jun-18 13:31N 49°18' W 123°08'0 0.0
2016-Jun-18 12:31N 49°18' W 123°08'0 0.0
2016-Jun-18 11:31N 49°18' W 123°08'0 0.0
2016-Jun-18 10:31N 49°18' W 123°08'0 0.0
2016-Jun-18 09:31N 49°18' W 123°08'0 0.0
2016-Jun-18 08:31N 49°18' W 123°08'  

Dump ship's entire track history